Child Of Lir — 9HB3872 — position and weather

sailwx.info

Track history (hours):
 
Tides and Currents Weather Stations Pressure Air Temp Water Temp Dewpoint Dewpoint Depression Visibility Wind Speed Wind Dir Waves Ship Positions

Child Of Lir

Last reported at 2017-Nov-19 01:27 UTC. Time now 2017-Dec-14 00:44 UTC.
Position N 35°59' W 005°40'.
Warning: this ship's position is 24 days out of date.

Length 32 m.

Type: Sailing vessel. MMSI: 248000588.

Date/timePositionNaut miles runAvg speedWind from/ knotsBaromVisibWave heightAir tempDewpointWater temp
2017-Nov-19 01:27N 35°59' W 005°40'4 9.3
2017-Nov-19 00:58N 35°59' W 005°35'4 8.7
2017-Nov-19 00:30N 36°01' W 005°30'10 7.1
2017-Nov-18 23:03N 36°09' W 005°22'0 0.1
2017-Nov-18 20:45N 36°09' W 005°22'0 0.2
2017-Nov-18 20:17N 36°09' W 005°22'1 4.8
2017-Nov-18 19:58N 36°08' W 005°23'217 9.3
2017-Nov-17 20:32N 37°19' W 001°06'3 9.6
2017-Nov-17 20:12N 37°21' W 001°03'3 9.5
2017-Nov-17 19:55N 37°22' W 001°01'5 9.2
2017-Nov-17 19:21N 37°26' W 000°56'4 8.8
2017-Nov-17 18:53N 37°28' W 000°52'3 8.1
2017-Nov-17 18:30N 37°29' W 000°48'4 8.5
2017-Nov-17 18:00N 37°32' W 000°44'5 8.7
2017-Nov-17 17:28N 37°35' W 000°39'4 8.7
2017-Nov-17 17:00N 37°38' W 000°36'5 8.8
2017-Nov-17 16:29N 37°41' W 000°32'4 8.9
2017-Nov-17 16:00N 37°44' W 000°28'162 8.5
2017-Nov-16 20:55N 39°21' E 002°18'5 9.2
2017-Nov-16 20:23N 39°23' E 002°24'4 9.3
2017-Nov-16 20:00N 39°24' E 002°28'5 9.1
2017-Nov-16 19:30N 39°26' E 002°33'5 9.0
2017-Nov-16 19:00N 39°30' E 002°36'4 7.6
2017-Nov-16 18:30N 39°34' E 002°38'1 0.9
2017-Nov-16 17:57N 39°34' E 002°38'0 0.0
2017-Nov-16 17:30N 39°34' E 002°38'0 0.0
2017-Nov-16 17:00N 39°34' E 002°38'0 0.0
2017-Nov-16 16:30N 39°34' E 002°38'0 0.1
2017-Nov-16 16:00N 39°34' E 002°38'0 0.1
2017-Nov-16 15:30N 39°34' E 002°38'0 0.0
2017-Nov-16 15:00N 39°34' E 002°38'0 0.0
2017-Nov-16 14:30N 39°34' E 002°38'0 0.0
2017-Nov-16 14:00N 39°34' E 002°38'0 0.0
2017-Nov-16 13:30N 39°34' E 002°38'0 0.0
2017-Nov-16 13:00N 39°34' E 002°38'0 0.0
2017-Nov-16 12:30N 39°34' E 002°38'0 0.0
2017-Nov-16 12:00N 39°34' E 002°38'0 0.0
2017-Nov-16 11:30N 39°34' E 002°38'0 0.0
2017-Nov-16 11:00N 39°34' E 002°38'0 0.0
2017-Nov-16 10:30N 39°34' E 002°38'0 0.0
2017-Nov-16 10:00N 39°34' E 002°38'0 0.0
2017-Nov-16 09:30N 39°34' E 002°38'0 0.0
2017-Nov-16 09:00N 39°34' E 002°38'0 0.0
2017-Nov-16 08:30N 39°34' E 002°38'0 0.0
2017-Nov-16 08:00N 39°34' E 002°38'0 0.0
2017-Nov-16 07:30N 39°34' E 002°38'0 0.0
2017-Nov-16 07:00N 39°34' E 002°38'0 0.0
2017-Nov-16 06:30N 39°34' E 002°38'0 0.0
2017-Nov-16 06:00N 39°34' E 002°38'0 0.0
2017-Nov-16 05:30N 39°34' E 002°38'0 0.0
2017-Nov-16 05:00N 39°34' E 002°38'0 0.0
2017-Nov-16 04:30N 39°34' E 002°38'0 0.0
2017-Nov-16 04:00N 39°34' E 002°38'0 0.0
2017-Nov-16 03:30N 39°34' E 002°38'0 0.0
2017-Nov-16 03:00N 39°34' E 002°38'0 0.0
2017-Nov-16 02:30N 39°34' E 002°38'0 0.0
2017-Nov-16 01:57N 39°34' E 002°38'0 0.0
2017-Nov-16 01:30N 39°34' E 002°38'0 0.0
2017-Nov-16 01:00N 39°34' E 002°38'0 0.0
2017-Nov-16 00:30N 39°34' E 002°38'0 0.0
2017-Nov-16 00:00N 39°34' E 002°38'0 0.0
2017-Nov-15 23:30N 39°34' E 002°38'0 0.0
2017-Nov-15 23:00N 39°34' E 002°38'0 0.0
2017-Nov-15 22:30N 39°34' E 002°38'0 0.0
2017-Nov-15 22:00N 39°34' E 002°38'0 0.0
2017-Nov-15 21:30N 39°34' E 002°38'0 0.0
2017-Nov-15 21:00N 39°34' E 002°38'0 0.0
2017-Nov-15 20:30N 39°34' E 002°38'0 0.0
2017-Nov-15 20:00N 39°34' E 002°38'0 0.0
2017-Nov-15 19:30N 39°34' E 002°38'0 0.0
2017-Nov-15 19:00N 39°34' E 002°38'0 0.0
2017-Nov-15 18:30N 39°34' E 002°38'0 0.0
2017-Nov-15 18:00N 39°34' E 002°38'0 0.0
2017-Nov-15 17:30N 39°34' E 002°38'0 0.0
2017-Nov-15 17:00N 39°34' E 002°38'0 0.0
2017-Nov-15 16:30N 39°34' E 002°38'0 0.0
2017-Nov-15 16:00N 39°34' E 002°38'0 0.0
2017-Nov-15 15:30N 39°34' E 002°38'0 0.0
2017-Nov-15 15:00N 39°34' E 002°38'0 0.0
2017-Nov-15 14:30N 39°34' E 002°38'0 0.0
2017-Nov-15 14:00N 39°34' E 002°38'0 0.0
2017-Nov-15 13:30N 39°34' E 002°38'0 0.0
2017-Nov-15 13:00N 39°34' E 002°38'0 0.0
2017-Nov-15 12:30N 39°34' E 002°38'0 0.0
2017-Nov-15 12:00N 39°34' E 002°38'0 0.0
2017-Nov-15 11:30N 39°34' E 002°38'0 0.0
2017-Nov-15 11:00N 39°34' E 002°38'0 0.0
2017-Nov-15 10:30N 39°34' E 002°38'0 0.0
2017-Nov-15 10:00N 39°34' E 002°38'0 0.0
2017-Nov-15 09:30N 39°34' E 002°38'0 0.0
2017-Nov-15 09:00N 39°34' E 002°38'0 0.0
2017-Nov-15 08:30N 39°34' E 002°38'0 0.0
2017-Nov-15 08:00N 39°34' E 002°38'0 0.0
2017-Nov-15 07:30N 39°34' E 002°38'0 0.0
2017-Nov-15 07:00N 39°34' E 002°38'0 0.0
2017-Nov-15 06:30N 39°34' E 002°38'0 0.0
2017-Nov-15 06:00N 39°34' E 002°38'0 0.0
2017-Nov-15 05:30N 39°34' E 002°38'0 0.0
2017-Nov-15 05:00N 39°34' E 002°38'0 0.0
2017-Nov-15 04:30N 39°34' E 002°38'0 0.0
2017-Nov-15 04:00N 39°34' E 002°38'0 0.0
2017-Nov-15 03:30N 39°34' E 002°38'0 0.0
2017-Nov-15 03:00N 39°34' E 002°38'0 0.0
2017-Nov-15 02:30N 39°34' E 002°38'0 0.0
2017-Nov-15 01:57N 39°34' E 002°38'0 0.0
2017-Nov-15 01:30N 39°34' E 002°38'0 0.0
2017-Nov-15 01:00N 39°34' E 002°38'0 0.0
2017-Nov-15 00:30N 39°34' E 002°38'0 0.0
2017-Nov-15 00:00N 39°34' E 002°38'0 0.0
2017-Nov-14 23:30N 39°34' E 002°38'0 0.0
2017-Nov-14 23:00N 39°34' E 002°38'0 0.0
2017-Nov-14 22:30N 39°34' E 002°38'0 0.0
2017-Nov-14 22:00N 39°34' E 002°38'0 0.0
2017-Nov-14 21:30N 39°34' E 002°38'0 0.0
2017-Nov-14 21:00N 39°34' E 002°38'0 0.0
2017-Nov-14 20:30N 39°34' E 002°38'0 0.0
2017-Nov-14 19:59N 39°34' E 002°38'0 0.0
2017-Nov-14 19:29N 39°34' E 002°38'0 0.0
2017-Nov-14 18:56N 39°34' E 002°38'0 0.0
2017-Nov-14 18:29N 39°34' E 002°38'0 0.0
2017-Nov-14 17:59N 39°34' E 002°38'0 0.0
2017-Nov-14 17:29N 39°34' E 002°38'0 0.0
2017-Nov-14 16:59N 39°34' E 002°38'0 0.0
2017-Nov-14 16:29N 39°34' E 002°38'0 0.0
2017-Nov-14 15:59N 39°34' E 002°38'0 0.0
2017-Nov-14 15:29N 39°34' E 002°38'0 0.0
2017-Nov-14 14:59N 39°34' E 002°38'0 0.0
2017-Nov-14 14:29N 39°34' E 002°38'0 0.0
2017-Nov-14 13:59N 39°34' E 002°38'0 0.0
2017-Nov-14 13:29N 39°34' E 002°38'0 0.0
2017-Nov-14 12:59N 39°34' E 002°38'0 0.0
2017-Nov-14 12:29N 39°34' E 002°38'0 0.0
2017-Nov-14 11:59N 39°34' E 002°38'0 0.0
2017-Nov-14 11:29N 39°34' E 002°38'0 0.0
2017-Nov-14 10:59N 39°34' E 002°38'0 0.0
2017-Nov-14 10:29N 39°34' E 002°38'0 0.0
2017-Nov-14 09:59N 39°34' E 002°38'0 0.0
2017-Nov-14 09:29N 39°34' E 002°38'0 0.0
2017-Nov-14 08:59N 39°34' E 002°38'0 0.0
2017-Nov-14 08:29N 39°34' E 002°38'0 0.0
2017-Nov-14 07:59N 39°34' E 002°38'0 0.0
2017-Nov-14 07:29N 39°34' E 002°38'0 0.0
2017-Nov-14 06:59N 39°34' E 002°38'0 0.0
2017-Nov-14 06:29N 39°34' E 002°38'0 0.0
2017-Nov-14 05:59N 39°34' E 002°38'0 0.0
2017-Nov-14 05:29N 39°34' E 002°38'0 0.0
2017-Nov-14 04:59N 39°34' E 002°38'0 0.0
2017-Nov-14 04:29N 39°34' E 002°38'0 0.0
2017-Nov-14 03:56N 39°34' E 002°38'0 0.0
2017-Nov-14 03:29N 39°34' E 002°38'0 0.0
2017-Nov-14 02:59N 39°34' E 002°38'0 0.0
2017-Nov-14 02:29N 39°34' E 002°38'0 0.0
2017-Nov-14 01:59N 39°34' E 002°38'0 0.0
2017-Nov-14 01:29N 39°34' E 002°38'0 0.0
2017-Nov-14 00:59N 39°34' E 002°38'0 0.0
2017-Nov-14 00:29N 39°34' E 002°38'0 0.0
2017-Nov-13 23:59N 39°34' E 002°38'0 0.0
2017-Nov-13 23:29N 39°34' E 002°38'0 0.0
2017-Nov-13 22:56N 39°34' E 002°38'0 0.0
2017-Nov-13 22:29N 39°34' E 002°38'0 0.0
2017-Nov-13 21:59N 39°34' E 002°38'0 0.0
2017-Nov-13 01:59N 39°34' E 002°38'0 0.0
2017-Nov-13 01:29N 39°34' E 002°38'0 0.0
2017-Nov-13 00:59N 39°34' E 002°38'0 0.0
2017-Nov-13 00:29N 39°34' E 002°38'0 0.0
2017-Nov-12 23:59N 39°34' E 002°38'0 0.0
2017-Nov-12 23:23N 39°34' E 002°38'0 0.0
2017-Nov-12 22:59N 39°34' E 002°38'0 0.0
2017-Nov-12 22:29N 39°34' E 002°38'0 0.0
2017-Nov-12 21:59N 39°34' E 002°38'0 0.0
2017-Nov-12 21:29N 39°34' E 002°38'0 0.0
2017-Nov-12 20:59N 39°34' E 002°38'0 0.0
2017-Nov-12 20:29N 39°34' E 002°38'0 0.0
2017-Nov-12 19:59N 39°34' E 002°38'0 0.0
2017-Nov-12 19:29N 39°34' E 002°38'0 0.0
2017-Nov-12 18:59N 39°34' E 002°38'0 0.0
2017-Nov-12 18:29N 39°34' E 002°38'0 0.0
2017-Nov-12 17:59N 39°34' E 002°38'0 0.0
2017-Nov-12 17:29N 39°34' E 002°38'0 0.0
2017-Nov-12 16:59N 39°34' E 002°38'0 0.0
2017-Nov-12 16:29N 39°34' E 002°38'0 0.0
2017-Nov-12 16:00N 39°34' E 002°38'0 0.0
2017-Nov-12 15:30N 39°34' E 002°38'0 0.0
2017-Nov-12 15:00N 39°34' E 002°38'0 0.0
2017-Nov-12 14:30N 39°34' E 002°38'0 0.0
2017-Nov-12 14:00N 39°34' E 002°38'0 0.0
2017-Nov-12 13:30N 39°34' E 002°38'0 0.0
2017-Nov-12 13:00N 39°34' E 002°38'0 0.0
2017-Nov-12 12:30N 39°34' E 002°38'0 0.0
2017-Nov-12 12:00N 39°34' E 002°38'0 0.0
2017-Nov-12 11:30N 39°34' E 002°38'0 0.0
2017-Nov-12 11:00N 39°34' E 002°38'0 0.0
2017-Nov-12 10:30N 39°34' E 002°38'0 0.0
2017-Nov-12 10:00N 39°34' E 002°38'0 0.0
2017-Nov-12 09:30N 39°34' E 002°38'0 0.0
2017-Nov-12 09:00N 39°34' E 002°38'0 0.0
2017-Nov-12 08:30N 39°34' E 002°38'0 0.0
2017-Nov-12 08:00N 39°34' E 002°38'0 0.0
2017-Nov-12 07:30N 39°34' E 002°38'0 0.0
2017-Nov-12 07:00N 39°34' E 002°38'0 0.0
2017-Nov-12 06:30N 39°34' E 002°38'0 0.0
2017-Nov-12 06:00N 39°34' E 002°38'0 0.0
2017-Nov-12 05:30N 39°34' E 002°38'0 0.0
2017-Nov-12 05:00N 39°34' E 002°38'0 0.0
2017-Nov-12 04:30N 39°34' E 002°38'0 0.0
2017-Nov-12 04:00N 39°34' E 002°38'0 0.0
2017-Nov-12 03:30N 39°34' E 002°38'0 0.0
2017-Nov-12 03:00N 39°34' E 002°38'0 0.0
2017-Nov-12 02:27N 39°34' E 002°38'0 0.0
2017-Nov-12 02:00N 39°34' E 002°38'0 0.0
2017-Nov-12 01:30N 39°34' E 002°38'0 0.0
2017-Nov-12 01:00N 39°34' E 002°38'0 0.0
2017-Nov-12 00:30N 39°34' E 002°38'0 0.0
2017-Nov-12 00:00N 39°34' E 002°38'0 0.0
2017-Nov-11 23:30N 39°34' E 002°38'0 0.0
2017-Nov-11 23:00N 39°34' E 002°38'0 0.0
2017-Nov-11 22:30N 39°34' E 002°38'0 0.0
2017-Nov-11 22:00N 39°34' E 002°38'0 0.0
2017-Nov-11 21:30N 39°34' E 002°38'0 0.0
2017-Nov-11 21:00N 39°34' E 002°38'0 0.0
2017-Nov-11 20:30N 39°34' E 002°38'0 0.0
2017-Nov-11 20:00N 39°34' E 002°38'0 0.0
2017-Nov-11 19:30N 39°34' E 002°38'0 0.0
2017-Nov-11 19:00N 39°34' E 002°38'0 0.0
2017-Nov-11 18:30N 39°34' E 002°38'0 0.0
2017-Nov-11 18:00N 39°34' E 002°38'0 0.0
2017-Nov-11 17:30N 39°34' E 002°38'0 0.0
2017-Nov-11 17:00N 39°34' E 002°38'0 0.0
2017-Nov-11 16:24N 39°34' E 002°38'0 0.0
2017-Nov-11 16:00N 39°34' E 002°38'0 0.0
2017-Nov-11 15:30N 39°34' E 002°38'0 0.0
2017-Nov-11 15:00N 39°34' E 002°38'0 0.0
2017-Nov-11 14:27N 39°34' E 002°38'0 0.0
2017-Nov-11 14:00N 39°34' E 002°38'0 0.0
2017-Nov-11 13:30N 39°34' E 002°38'0 0.0
2017-Nov-11 13:00N 39°34' E 002°38'0 0.0
2017-Nov-11 12:30N 39°34' E 002°38'0 0.0
2017-Nov-11 12:00N 39°34' E 002°38'0 0.0
2017-Nov-11 11:30N 39°34' E 002°38'0 0.0
2017-Nov-11 11:00N 39°34' E 002°38'0 0.0
2017-Nov-11 10:27N 39°34' E 002°38'0 0.0
2017-Nov-11 10:00N 39°34' E 002°38'0 0.0
2017-Nov-11 09:30N 39°34' E 002°38'0 0.0
2017-Nov-11 09:00N 39°34' E 002°38'0 0.0
2017-Nov-11 08:30N 39°34' E 002°38'0 0.0
2017-Nov-11 08:00N 39°34' E 002°38'0 0.0
2017-Nov-11 07:24N 39°34' E 002°38'0 0.0
2017-Nov-11 06:54N 39°34' E 002°38'0 0.0
2017-Nov-11 06:30N 39°34' E 002°38'0 0.0
2017-Nov-11 06:00N 39°34' E 002°38'0 0.0
2017-Nov-11 05:30N 39°34' E 002°38'0 0.0
2017-Nov-11 05:00N 39°34' E 002°38'0 0.0
2017-Nov-11 04:30N 39°34' E 002°38'0 0.0
2017-Nov-11 04:00N 39°34' E 002°38'0 0.0
2017-Nov-11 03:30N 39°34' E 002°38'0 0.0
2017-Nov-11 02:57N 39°34' E 002°38'0 0.0
2017-Nov-11 02:27N 39°34' E 002°38'0 0.0
2017-Nov-11 01:57N 39°34' E 002°38'0 0.0
2017-Nov-11 01:30N 39°34' E 002°38'0 0.0
2017-Nov-11 01:00N 39°34' E 002°38'0 0.0
2017-Nov-11 00:30N 39°34' E 002°38'0 0.0
2017-Nov-11 00:00N 39°34' E 002°38'0 0.0
2017-Nov-10 23:30N 39°34' E 002°38'0 0.0
2017-Nov-10 23:00N 39°34' E 002°38'0 0.0
2017-Nov-10 22:30N 39°34' E 002°38'0 0.0
2017-Nov-10 22:00N 39°34' E 002°38'0 0.0
2017-Nov-10 21:30N 39°34' E 002°38'0 0.0
2017-Nov-10 21:00N 39°34' E 002°38'0 0.0
2017-Nov-10 20:30N 39°34' E 002°38'0 0.0
2017-Nov-10 20:00N 39°34' E 002°38'0 0.0
2017-Nov-10 19:30N 39°34' E 002°38'0 0.0
2017-Nov-10 19:00N 39°34' E 002°38'0 0.0
2017-Nov-10 18:30N 39°34' E 002°38'0 0.0
2017-Nov-10 18:00N 39°34' E 002°38'0 0.1
2017-Nov-10 17:30N 39°34' E 002°38'0 0.0
2017-Nov-10 17:00N 39°34' E 002°38'0 0.0
2017-Nov-10 16:30N 39°34' E 002°38'0 0.0
2017-Nov-10 16:00N 39°34' E 002°38'0 0.0
2017-Nov-10 15:30N 39°34' E 002°38'0 0.0
2017-Nov-10 14:58N 39°34' E 002°38'0 0.0
2017-Nov-10 14:28N 39°34' E 002°38'0 0.0
2017-Nov-10 13:58N 39°34' E 002°38'0 0.0
2017-Nov-10 13:28N 39°34' E 002°38'0 0.0
2017-Nov-10 12:55N 39°34' E 002°38'0 0.0
2017-Nov-10 12:28N 39°34' E 002°38'0 0.0
2017-Nov-10 11:58N 39°34' E 002°38'0 0.0
2017-Nov-10 11:28N 39°34' E 002°38'0 0.0
2017-Nov-10 10:58N 39°34' E 002°38'0 0.0
2017-Nov-10 10:25N 39°34' E 002°38'0 0.1
2017-Nov-10 09:58N 39°34' E 002°38'0 0.0
2017-Nov-10 09:28N 39°34' E 002°38'0 0.0
2017-Nov-10 08:58N 39°34' E 002°38'0 0.0
2017-Nov-10 08:28N 39°34' E 002°38'0 0.2
2017-Nov-10 08:00N 39°34' E 002°38'0 0.0
2017-Nov-10 07:30N 39°34' E 002°38'0 0.0
2017-Nov-10 07:00N 39°34' E 002°38'0 0.0
2017-Nov-10 06:30N 39°34' E 002°38'0 0.0
2017-Nov-10 06:00N 39°34' E 002°38'0 0.0
2017-Nov-10 05:27N 39°34' E 002°38'0 0.0
2017-Nov-10 05:00N 39°34' E 002°38'0 0.0
2017-Nov-10 04:30N 39°34' E 002°38'0 0.0
2017-Nov-10 04:00N 39°34' E 002°38'0 0.0
2017-Nov-10 03:30N 39°34' E 002°38'0 0.0
2017-Nov-10 03:00N 39°34' E 002°38'0 0.0
2017-Nov-10 02:30N 39°34' E 002°38'0 0.0
2017-Nov-10 02:00N 39°34' E 002°38'0 0.0
2017-Nov-10 01:27N 39°34' E 002°38'0 0.0
2017-Nov-10 01:00N 39°34' E 002°38'0 0.0
2017-Nov-10 00:30N 39°34' E 002°38'0 0.0
2017-Nov-10 00:00N 39°34' E 002°38'0 0.0
2017-Nov-09 23:30N 39°34' E 002°38'0 0.0
2017-Nov-09 23:00N 39°34' E 002°38'0 0.0
2017-Nov-09 22:30N 39°34' E 002°38'0 0.0
2017-Nov-09 22:00N 39°34' E 002°38'0 0.0
2017-Nov-09 21:30N 39°34' E 002°38'0 0.0
2017-Nov-09 21:00N 39°34' E 002°38'0 0.0
2017-Nov-09 20:30N 39°34' E 002°38'0 0.0
2017-Nov-09 20:00N 39°34' E 002°38'0 0.0
2017-Nov-09 19:30N 39°34' E 002°38'0 0.0
2017-Nov-09 19:00N 39°34' E 002°38'0 0.0
2017-Nov-09 18:30N 39°34' E 002°38'0 0.0
2017-Nov-09 18:00N 39°34' E 002°38'0 0.0
2017-Nov-09 17:30N 39°34' E 002°38'0 0.0
2017-Nov-09 17:00N 39°34' E 002°38'0 0.0
2017-Nov-09 16:30N 39°34' E 002°38'0 0.0
2017-Nov-09 16:00N 39°34' E 002°38'0 0.0
2017-Nov-09 15:30N 39°34' E 002°38'0 0.0
2017-Nov-09 15:00N 39°34' E 002°38'0 0.0
2017-Nov-09 14:29N 39°34' E 002°38'0 0.0
2017-Nov-09 13:59N 39°34' E 002°38'0 0.0
2017-Nov-09 13:29N 39°34' E 002°38'0 0.0
2017-Nov-09 12:59N 39°34' E 002°38'0 0.0
2017-Nov-09 12:29N 39°34' E 002°38'0 0.0
2017-Nov-09 11:59N 39°34' E 002°38'0 0.0
2017-Nov-09 11:26N 39°34' E 002°38'0 0.0
2017-Nov-09 11:00N 39°34' E 002°38'0 0.0
2017-Nov-09 10:30N 39°34' E 002°38'0 0.0
2017-Nov-09 09:58N 39°34' E 002°38'0 0.0
2017-Nov-09 09:28N 39°34' E 002°38'0 0.0
2017-Nov-09 08:58N 39°34' E 002°38'0 0.0
2017-Nov-09 08:28N 39°34' E 002°38'0 0.0
2017-Nov-09 07:58N 39°34' E 002°38'0 0.0
2017-Nov-09 07:28N 39°34' E 002°38'0 0.0
2017-Nov-09 06:58N 39°34' E 002°38'0 0.0
2017-Nov-09 06:28N 39°34' E 002°38'0 0.0
2017-Nov-09 05:58N 39°34' E 002°38'0 0.0
2017-Nov-09 05:28N 39°34' E 002°38'0 0.0
2017-Nov-09 04:58N 39°34' E 002°38'0 0.0
2017-Nov-09 04:25N 39°34' E 002°38'0 0.0
2017-Nov-09 03:58N 39°34' E 002°38'0 0.0
2017-Nov-09 03:28N 39°34' E 002°38'0 0.0
2017-Nov-09 02:58N 39°34' E 002°38'0 0.0
2017-Nov-09 02:28N 39°34' E 002°38'0 0.0
2017-Nov-09 01:58N 39°34' E 002°38'0 0.0
2017-Nov-09 01:28N 39°34' E 002°38'  
Track history (hours):
 
Tides and Currents Weather Stations Pressure Air Temp Water Temp Dewpoint Dewpoint Depression Visibility Wind Speed Wind Dir Waves Ship Positions

Child Of Lir

Last reported at 2017-Nov-19 01:27 UTC. Time now 2017-Dec-14 00:44 UTC.
Position N 35°59' W 005°40'.
Warning: this ship's position is 24 days out of date.

Length 32 m.

Type: Sailing vessel. MMSI: 248000588.

Date/timePositionNaut miles runAvg speedWind from/ knotsBaromVisibWave heightAir tempDewpointWater temp
2017-Nov-19 01:27N 35°59' W 005°40'4 9.3
2017-Nov-19 00:58N 35°59' W 005°35'4 8.7
2017-Nov-19 00:30N 36°01' W 005°30'10 7.1
2017-Nov-18 23:03N 36°09' W 005°22'0 0.1
2017-Nov-18 20:45N 36°09' W 005°22'0 0.2
2017-Nov-18 20:17N 36°09' W 005°22'1 4.8
2017-Nov-18 19:58N 36°08' W 005°23'217 9.3
2017-Nov-17 20:32N 37°19' W 001°06'3 9.6
2017-Nov-17 20:12N 37°21' W 001°03'3 9.5
2017-Nov-17 19:55N 37°22' W 001°01'5 9.2
2017-Nov-17 19:21N 37°26' W 000°56'4 8.8
2017-Nov-17 18:53N 37°28' W 000°52'3 8.1
2017-Nov-17 18:30N 37°29' W 000°48'4 8.5
2017-Nov-17 18:00N 37°32' W 000°44'5 8.7
2017-Nov-17 17:28N 37°35' W 000°39'4 8.7
2017-Nov-17 17:00N 37°38' W 000°36'5 8.8
2017-Nov-17 16:29N 37°41' W 000°32'4 8.9
2017-Nov-17 16:00N 37°44' W 000°28'162 8.5
2017-Nov-16 20:55N 39°21' E 002°18'5 9.2
2017-Nov-16 20:23N 39°23' E 002°24'4 9.3
2017-Nov-16 20:00N 39°24' E 002°28'5 9.1
2017-Nov-16 19:30N 39°26' E 002°33'5 9.0
2017-Nov-16 19:00N 39°30' E 002°36'4 7.6
2017-Nov-16 18:30N 39°34' E 002°38'1 0.9
2017-Nov-16 17:57N 39°34' E 002°38'0 0.0
2017-Nov-16 17:30N 39°34' E 002°38'0 0.0
2017-Nov-16 17:00N 39°34' E 002°38'0 0.0
2017-Nov-16 16:30N 39°34' E 002°38'0 0.1
2017-Nov-16 16:00N 39°34' E 002°38'0 0.1
2017-Nov-16 15:30N 39°34' E 002°38'0 0.0
2017-Nov-16 15:00N 39°34' E 002°38'0 0.0
2017-Nov-16 14:30N 39°34' E 002°38'0 0.0
2017-Nov-16 14:00N 39°34' E 002°38'0 0.0
2017-Nov-16 13:30N 39°34' E 002°38'0 0.0
2017-Nov-16 13:00N 39°34' E 002°38'0 0.0
2017-Nov-16 12:30N 39°34' E 002°38'0 0.0
2017-Nov-16 12:00N 39°34' E 002°38'0 0.0
2017-Nov-16 11:30N 39°34' E 002°38'0 0.0
2017-Nov-16 11:00N 39°34' E 002°38'0 0.0
2017-Nov-16 10:30N 39°34' E 002°38'0 0.0
2017-Nov-16 10:00N 39°34' E 002°38'0 0.0
2017-Nov-16 09:30N 39°34' E 002°38'0 0.0
2017-Nov-16 09:00N 39°34' E 002°38'0 0.0
2017-Nov-16 08:30N 39°34' E 002°38'0 0.0
2017-Nov-16 08:00N 39°34' E 002°38'0 0.0
2017-Nov-16 07:30N 39°34' E 002°38'0 0.0
2017-Nov-16 07:00N 39°34' E 002°38'0 0.0
2017-Nov-16 06:30N 39°34' E 002°38'0 0.0
2017-Nov-16 06:00N 39°34' E 002°38'0 0.0
2017-Nov-16 05:30N 39°34' E 002°38'0 0.0
2017-Nov-16 05:00N 39°34' E 002°38'0 0.0
2017-Nov-16 04:30N 39°34' E 002°38'0 0.0
2017-Nov-16 04:00N 39°34' E 002°38'0 0.0
2017-Nov-16 03:30N 39°34' E 002°38'0 0.0
2017-Nov-16 03:00N 39°34' E 002°38'0 0.0
2017-Nov-16 02:30N 39°34' E 002°38'0 0.0
2017-Nov-16 01:57N 39°34' E 002°38'0 0.0
2017-Nov-16 01:30N 39°34' E 002°38'0 0.0
2017-Nov-16 01:00N 39°34' E 002°38'0 0.0
2017-Nov-16 00:30N 39°34' E 002°38'0 0.0
2017-Nov-16 00:00N 39°34' E 002°38'0 0.0
2017-Nov-15 23:30N 39°34' E 002°38'0 0.0
2017-Nov-15 23:00N 39°34' E 002°38'0 0.0
2017-Nov-15 22:30N 39°34' E 002°38'0 0.0
2017-Nov-15 22:00N 39°34' E 002°38'0 0.0
2017-Nov-15 21:30N 39°34' E 002°38'0 0.0
2017-Nov-15 21:00N 39°34' E 002°38'0 0.0
2017-Nov-15 20:30N 39°34' E 002°38'0 0.0
2017-Nov-15 20:00N 39°34' E 002°38'0 0.0
2017-Nov-15 19:30N 39°34' E 002°38'0 0.0
2017-Nov-15 19:00N 39°34' E 002°38'0 0.0
2017-Nov-15 18:30N 39°34' E 002°38'0 0.0
2017-Nov-15 18:00N 39°34' E 002°38'0 0.0
2017-Nov-15 17:30N 39°34' E 002°38'0 0.0
2017-Nov-15 17:00N 39°34' E 002°38'0 0.0
2017-Nov-15 16:30N 39°34' E 002°38'0 0.0
2017-Nov-15 16:00N 39°34' E 002°38'0 0.0
2017-Nov-15 15:30N 39°34' E 002°38'0 0.0
2017-Nov-15 15:00N 39°34' E 002°38'0 0.0
2017-Nov-15 14:30N 39°34' E 002°38'0 0.0
2017-Nov-15 14:00N 39°34' E 002°38'0 0.0
2017-Nov-15 13:30N 39°34' E 002°38'0 0.0
2017-Nov-15 13:00N 39°34' E 002°38'0 0.0
2017-Nov-15 12:30N 39°34' E 002°38'0 0.0
2017-Nov-15 12:00N 39°34' E 002°38'0 0.0
2017-Nov-15 11:30N 39°34' E 002°38'0 0.0
2017-Nov-15 11:00N 39°34' E 002°38'0 0.0
2017-Nov-15 10:30N 39°34' E 002°38'0 0.0
2017-Nov-15 10:00N 39°34' E 002°38'0 0.0
2017-Nov-15 09:30N 39°34' E 002°38'0 0.0
2017-Nov-15 09:00N 39°34' E 002°38'0 0.0
2017-Nov-15 08:30N 39°34' E 002°38'0 0.0
2017-Nov-15 08:00N 39°34' E 002°38'0 0.0
2017-Nov-15 07:30N 39°34' E 002°38'0 0.0
2017-Nov-15 07:00N 39°34' E 002°38'0 0.0
2017-Nov-15 06:30N 39°34' E 002°38'0 0.0
2017-Nov-15 06:00N 39°34' E 002°38'0 0.0
2017-Nov-15 05:30N 39°34' E 002°38'0 0.0
2017-Nov-15 05:00N 39°34' E 002°38'0 0.0
2017-Nov-15 04:30N 39°34' E 002°38'0 0.0
2017-Nov-15 04:00N 39°34' E 002°38'0 0.0
2017-Nov-15 03:30N 39°34' E 002°38'0 0.0
2017-Nov-15 03:00N 39°34' E 002°38'0 0.0
2017-Nov-15 02:30N 39°34' E 002°38'0 0.0
2017-Nov-15 01:57N 39°34' E 002°38'0 0.0
2017-Nov-15 01:30N 39°34' E 002°38'0 0.0
2017-Nov-15 01:00N 39°34' E 002°38'0 0.0
2017-Nov-15 00:30N 39°34' E 002°38'0 0.0
2017-Nov-15 00:00N 39°34' E 002°38'0 0.0
2017-Nov-14 23:30N 39°34' E 002°38'0 0.0
2017-Nov-14 23:00N 39°34' E 002°38'0 0.0
2017-Nov-14 22:30N 39°34' E 002°38'0 0.0
2017-Nov-14 22:00N 39°34' E 002°38'0 0.0
2017-Nov-14 21:30N 39°34' E 002°38'0 0.0
2017-Nov-14 21:00N 39°34' E 002°38'0 0.0
2017-Nov-14 20:30N 39°34' E 002°38'0 0.0
2017-Nov-14 19:59N 39°34' E 002°38'0 0.0
2017-Nov-14 19:29N 39°34' E 002°38'0 0.0
2017-Nov-14 18:56N 39°34' E 002°38'0 0.0
2017-Nov-14 18:29N 39°34' E 002°38'0 0.0
2017-Nov-14 17:59N 39°34' E 002°38'0 0.0
2017-Nov-14 17:29N 39°34' E 002°38'0 0.0
2017-Nov-14 16:59N 39°34' E 002°38'0 0.0
2017-Nov-14 16:29N 39°34' E 002°38'0 0.0
2017-Nov-14 15:59N 39°34' E 002°38'0 0.0
2017-Nov-14 15:29N 39°34' E 002°38'0 0.0
2017-Nov-14 14:59N 39°34' E 002°38'0 0.0
2017-Nov-14 14:29N 39°34' E 002°38'0 0.0
2017-Nov-14 13:59N 39°34' E 002°38'0 0.0
2017-Nov-14 13:29N 39°34' E 002°38'0 0.0
2017-Nov-14 12:59N 39°34' E 002°38'0 0.0
2017-Nov-14 12:29N 39°34' E 002°38'0 0.0
2017-Nov-14 11:59N 39°34' E 002°38'0 0.0
2017-Nov-14 11:29N 39°34' E 002°38'0 0.0
2017-Nov-14 10:59N 39°34' E 002°38'0 0.0
2017-Nov-14 10:29N 39°34' E 002°38'0 0.0
2017-Nov-14 09:59N 39°34' E 002°38'0 0.0
2017-Nov-14 09:29N 39°34' E 002°38'0 0.0
2017-Nov-14 08:59N 39°34' E 002°38'0 0.0
2017-Nov-14 08:29N 39°34' E 002°38'0 0.0
2017-Nov-14 07:59N 39°34' E 002°38'0 0.0
2017-Nov-14 07:29N 39°34' E 002°38'0 0.0
2017-Nov-14 06:59N 39°34' E 002°38'0 0.0
2017-Nov-14 06:29N 39°34' E 002°38'0 0.0
2017-Nov-14 05:59N 39°34' E 002°38'0 0.0
2017-Nov-14 05:29N 39°34' E 002°38'0 0.0
2017-Nov-14 04:59N 39°34' E 002°38'0 0.0
2017-Nov-14 04:29N 39°34' E 002°38'0 0.0
2017-Nov-14 03:56N 39°34' E 002°38'0 0.0
2017-Nov-14 03:29N 39°34' E 002°38'0 0.0
2017-Nov-14 02:59N 39°34' E 002°38'0 0.0
2017-Nov-14 02:29N 39°34' E 002°38'0 0.0
2017-Nov-14 01:59N 39°34' E 002°38'0 0.0
2017-Nov-14 01:29N 39°34' E 002°38'0 0.0
2017-Nov-14 00:59N 39°34' E 002°38'0 0.0
2017-Nov-14 00:29N 39°34' E 002°38'0 0.0
2017-Nov-13 23:59N 39°34' E 002°38'0 0.0
2017-Nov-13 23:29N 39°34' E 002°38'0 0.0
2017-Nov-13 22:56N 39°34' E 002°38'0 0.0
2017-Nov-13 22:29N 39°34' E 002°38'0 0.0
2017-Nov-13 21:59N 39°34' E 002°38'0 0.0
2017-Nov-13 01:59N 39°34' E 002°38'0 0.0
2017-Nov-13 01:29N 39°34' E 002°38'0 0.0
2017-Nov-13 00:59N 39°34' E 002°38'0 0.0
2017-Nov-13 00:29N 39°34' E 002°38'0 0.0
2017-Nov-12 23:59N 39°34' E 002°38'0 0.0
2017-Nov-12 23:23N 39°34' E 002°38'0 0.0
2017-Nov-12 22:59N 39°34' E 002°38'0 0.0
2017-Nov-12 22:29N 39°34' E 002°38'0 0.0
2017-Nov-12 21:59N 39°34' E 002°38'0 0.0
2017-Nov-12 21:29N 39°34' E 002°38'0 0.0
2017-Nov-12 20:59N 39°34' E 002°38'0 0.0
2017-Nov-12 20:29N 39°34' E 002°38'0 0.0
2017-Nov-12 19:59N 39°34' E 002°38'0 0.0
2017-Nov-12 19:29N 39°34' E 002°38'0 0.0
2017-Nov-12 18:59N 39°34' E 002°38'0 0.0
2017-Nov-12 18:29N 39°34' E 002°38'0 0.0
2017-Nov-12 17:59N 39°34' E 002°38'0 0.0
2017-Nov-12 17:29N 39°34' E 002°38'0 0.0
2017-Nov-12 16:59N 39°34' E 002°38'0 0.0
2017-Nov-12 16:29N 39°34' E 002°38'0 0.0
2017-Nov-12 16:00N 39°34' E 002°38'0 0.0
2017-Nov-12 15:30N 39°34' E 002°38'0 0.0
2017-Nov-12 15:00N 39°34' E 002°38'0 0.0
2017-Nov-12 14:30N 39°34' E 002°38'0 0.0
2017-Nov-12 14:00N 39°34' E 002°38'0 0.0
2017-Nov-12 13:30N 39°34' E 002°38'0 0.0
2017-Nov-12 13:00N 39°34' E 002°38'0 0.0
2017-Nov-12 12:30N 39°34' E 002°38'0 0.0
2017-Nov-12 12:00N 39°34' E 002°38'0 0.0
2017-Nov-12 11:30N 39°34' E 002°38'0 0.0
2017-Nov-12 11:00N 39°34' E 002°38'0 0.0
2017-Nov-12 10:30N 39°34' E 002°38'0 0.0
2017-Nov-12 10:00N 39°34' E 002°38'0 0.0
2017-Nov-12 09:30N 39°34' E 002°38'0 0.0
2017-Nov-12 09:00N 39°34' E 002°38'0 0.0
2017-Nov-12 08:30N 39°34' E 002°38'0 0.0
2017-Nov-12 08:00N 39°34' E 002°38'0 0.0
2017-Nov-12 07:30N 39°34' E 002°38'0 0.0
2017-Nov-12 07:00N 39°34' E 002°38'0 0.0
2017-Nov-12 06:30N 39°34' E 002°38'0 0.0
2017-Nov-12 06:00N 39°34' E 002°38'0 0.0
2017-Nov-12 05:30N 39°34' E 002°38'0 0.0
2017-Nov-12 05:00N 39°34' E 002°38'0 0.0
2017-Nov-12 04:30N 39°34' E 002°38'0 0.0
2017-Nov-12 04:00N 39°34' E 002°38'0 0.0
2017-Nov-12 03:30N 39°34' E 002°38'0 0.0
2017-Nov-12 03:00N 39°34' E 002°38'0 0.0
2017-Nov-12 02:27N 39°34' E 002°38'0 0.0
2017-Nov-12 02:00N 39°34' E 002°38'0 0.0
2017-Nov-12 01:30N 39°34' E 002°38'0 0.0
2017-Nov-12 01:00N 39°34' E 002°38'0 0.0
2017-Nov-12 00:30N 39°34' E 002°38'0 0.0
2017-Nov-12 00:00N 39°34' E 002°38'0 0.0
2017-Nov-11 23:30N 39°34' E 002°38'0 0.0
2017-Nov-11 23:00N 39°34' E 002°38'0 0.0
2017-Nov-11 22:30N 39°34' E 002°38'0 0.0
2017-Nov-11 22:00N 39°34' E 002°38'0 0.0
2017-Nov-11 21:30N 39°34' E 002°38'0 0.0
2017-Nov-11 21:00N 39°34' E 002°38'0 0.0
2017-Nov-11 20:30N 39°34' E 002°38'0 0.0
2017-Nov-11 20:00N 39°34' E 002°38'0 0.0
2017-Nov-11 19:30N 39°34' E 002°38'0 0.0
2017-Nov-11 19:00N 39°34' E 002°38'0 0.0
2017-Nov-11 18:30N 39°34' E 002°38'0 0.0
2017-Nov-11 18:00N 39°34' E 002°38'0 0.0
2017-Nov-11 17:30N 39°34' E 002°38'0 0.0
2017-Nov-11 17:00N 39°34' E 002°38'0 0.0
2017-Nov-11 16:24N 39°34' E 002°38'0 0.0
2017-Nov-11 16:00N 39°34' E 002°38'0 0.0
2017-Nov-11 15:30N 39°34' E 002°38'0 0.0
2017-Nov-11 15:00N 39°34' E 002°38'0 0.0
2017-Nov-11 14:27N 39°34' E 002°38'0 0.0
2017-Nov-11 14:00N 39°34' E 002°38'0 0.0
2017-Nov-11 13:30N 39°34' E 002°38'0 0.0
2017-Nov-11 13:00N 39°34' E 002°38'0 0.0
2017-Nov-11 12:30N 39°34' E 002°38'0 0.0
2017-Nov-11 12:00N 39°34' E 002°38'0 0.0
2017-Nov-11 11:30N 39°34' E 002°38'0 0.0
2017-Nov-11 11:00N 39°34' E 002°38'0 0.0
2017-Nov-11 10:27N 39°34' E 002°38'0 0.0
2017-Nov-11 10:00N 39°34' E 002°38'0 0.0
2017-Nov-11 09:30N 39°34' E 002°38'0 0.0
2017-Nov-11 09:00N 39°34' E 002°38'0 0.0
2017-Nov-11 08:30N 39°34' E 002°38'0 0.0
2017-Nov-11 08:00N 39°34' E 002°38'0 0.0
2017-Nov-11 07:24N 39°34' E 002°38'0 0.0
2017-Nov-11 06:54N 39°34' E 002°38'0 0.0
2017-Nov-11 06:30N 39°34' E 002°38'0 0.0
2017-Nov-11 06:00N 39°34' E 002°38'0 0.0
2017-Nov-11 05:30N 39°34' E 002°38'0 0.0
2017-Nov-11 05:00N 39°34' E 002°38'0 0.0
2017-Nov-11 04:30N 39°34' E 002°38'0 0.0
2017-Nov-11 04:00N 39°34' E 002°38'0 0.0
2017-Nov-11 03:30N 39°34' E 002°38'0 0.0
2017-Nov-11 02:57N 39°34' E 002°38'0 0.0
2017-Nov-11 02:27N 39°34' E 002°38'0 0.0
2017-Nov-11 01:57N 39°34' E 002°38'0 0.0
2017-Nov-11 01:30N 39°34' E 002°38'0 0.0
2017-Nov-11 01:00N 39°34' E 002°38'0 0.0
2017-Nov-11 00:30N 39°34' E 002°38'0 0.0
2017-Nov-11 00:00N 39°34' E 002°38'0 0.0
2017-Nov-10 23:30N 39°34' E 002°38'0 0.0
2017-Nov-10 23:00N 39°34' E 002°38'0 0.0
2017-Nov-10 22:30N 39°34' E 002°38'0 0.0
2017-Nov-10 22:00N 39°34' E 002°38'0 0.0
2017-Nov-10 21:30N 39°34' E 002°38'0 0.0
2017-Nov-10 21:00N 39°34' E 002°38'0 0.0
2017-Nov-10 20:30N 39°34' E 002°38'0 0.0
2017-Nov-10 20:00N 39°34' E 002°38'0 0.0
2017-Nov-10 19:30N 39°34' E 002°38'0 0.0
2017-Nov-10 19:00N 39°34' E 002°38'0 0.0
2017-Nov-10 18:30N 39°34' E 002°38'0 0.0
2017-Nov-10 18:00N 39°34' E 002°38'0 0.1
2017-Nov-10 17:30N 39°34' E 002°38'0 0.0
2017-Nov-10 17:00N 39°34' E 002°38'0 0.0
2017-Nov-10 16:30N 39°34' E 002°38'0 0.0
2017-Nov-10 16:00N 39°34' E 002°38'0 0.0
2017-Nov-10 15:30N 39°34' E 002°38'0 0.0
2017-Nov-10 14:58N 39°34' E 002°38'0 0.0
2017-Nov-10 14:28N 39°34' E 002°38'0 0.0
2017-Nov-10 13:58N 39°34' E 002°38'0 0.0
2017-Nov-10 13:28N 39°34' E 002°38'0 0.0
2017-Nov-10 12:55N 39°34' E 002°38'0 0.0
2017-Nov-10 12:28N 39°34' E 002°38'0 0.0
2017-Nov-10 11:58N 39°34' E 002°38'0 0.0
2017-Nov-10 11:28N 39°34' E 002°38'0 0.0
2017-Nov-10 10:58N 39°34' E 002°38'0 0.0
2017-Nov-10 10:25N 39°34' E 002°38'0 0.1
2017-Nov-10 09:58N 39°34' E 002°38'0 0.0
2017-Nov-10 09:28N 39°34' E 002°38'0 0.0
2017-Nov-10 08:58N 39°34' E 002°38'0 0.0
2017-Nov-10 08:28N 39°34' E 002°38'0 0.2
2017-Nov-10 08:00N 39°34' E 002°38'0 0.0
2017-Nov-10 07:30N 39°34' E 002°38'0 0.0
2017-Nov-10 07:00N 39°34' E 002°38'0 0.0
2017-Nov-10 06:30N 39°34' E 002°38'0 0.0
2017-Nov-10 06:00N 39°34' E 002°38'0 0.0
2017-Nov-10 05:27N 39°34' E 002°38'0 0.0
2017-Nov-10 05:00N 39°34' E 002°38'0 0.0
2017-Nov-10 04:30N 39°34' E 002°38'0 0.0
2017-Nov-10 04:00N 39°34' E 002°38'0 0.0
2017-Nov-10 03:30N 39°34' E 002°38'0 0.0
2017-Nov-10 03:00N 39°34' E 002°38'0 0.0
2017-Nov-10 02:30N 39°34' E 002°38'0 0.0
2017-Nov-10 02:00N 39°34' E 002°38'0 0.0
2017-Nov-10 01:27N 39°34' E 002°38'0 0.0
2017-Nov-10 01:00N 39°34' E 002°38'0 0.0
2017-Nov-10 00:30N 39°34' E 002°38'0 0.0
2017-Nov-10 00:00N 39°34' E 002°38'0 0.0
2017-Nov-09 23:30N 39°34' E 002°38'0 0.0
2017-Nov-09 23:00N 39°34' E 002°38'0 0.0
2017-Nov-09 22:30N 39°34' E 002°38'0 0.0
2017-Nov-09 22:00N 39°34' E 002°38'0 0.0
2017-Nov-09 21:30N 39°34' E 002°38'0 0.0
2017-Nov-09 21:00N 39°34' E 002°38'0 0.0
2017-Nov-09 20:30N 39°34' E 002°38'0 0.0
2017-Nov-09 20:00N 39°34' E 002°38'0 0.0
2017-Nov-09 19:30N 39°34' E 002°38'0 0.0
2017-Nov-09 19:00N 39°34' E 002°38'0 0.0
2017-Nov-09 18:30N 39°34' E 002°38'0 0.0
2017-Nov-09 18:00N 39°34' E 002°38'0 0.0
2017-Nov-09 17:30N 39°34' E 002°38'0 0.0
2017-Nov-09 17:00N 39°34' E 002°38'0 0.0
2017-Nov-09 16:30N 39°34' E 002°38'0 0.0
2017-Nov-09 16:00N 39°34' E 002°38'0 0.0
2017-Nov-09 15:30N 39°34' E 002°38'0 0.0
2017-Nov-09 15:00N 39°34' E 002°38'0 0.0
2017-Nov-09 14:29N 39°34' E 002°38'0 0.0
2017-Nov-09 13:59N 39°34' E 002°38'0 0.0
2017-Nov-09 13:29N 39°34' E 002°38'0 0.0
2017-Nov-09 12:59N 39°34' E 002°38'0 0.0
2017-Nov-09 12:29N 39°34' E 002°38'0 0.0
2017-Nov-09 11:59N 39°34' E 002°38'0 0.0
2017-Nov-09 11:26N 39°34' E 002°38'0 0.0
2017-Nov-09 11:00N 39°34' E 002°38'0 0.0
2017-Nov-09 10:30N 39°34' E 002°38'0 0.0
2017-Nov-09 09:58N 39°34' E 002°38'0 0.0
2017-Nov-09 09:28N 39°34' E 002°38'0 0.0
2017-Nov-09 08:58N 39°34' E 002°38'0 0.0
2017-Nov-09 08:28N 39°34' E 002°38'0 0.0
2017-Nov-09 07:58N 39°34' E 002°38'0 0.0
2017-Nov-09 07:28N 39°34' E 002°38'0 0.0
2017-Nov-09 06:58N 39°34' E 002°38'0 0.0
2017-Nov-09 06:28N 39°34' E 002°38'0 0.0
2017-Nov-09 05:58N 39°34' E 002°38'0 0.0
2017-Nov-09 05:28N 39°34' E 002°38'0 0.0
2017-Nov-09 04:58N 39°34' E 002°38'0 0.0
2017-Nov-09 04:25N 39°34' E 002°38'0 0.0
2017-Nov-09 03:58N 39°34' E 002°38'0 0.0
2017-Nov-09 03:28N 39°34' E 002°38'0 0.0
2017-Nov-09 02:58N 39°34' E 002°38'0 0.0
2017-Nov-09 02:28N 39°34' E 002°38'0 0.0
2017-Nov-09 01:58N 39°34' E 002°38'0 0.0
2017-Nov-09 01:28N 39°34' E 002°38'  

Dump ship's entire track history